Historyczne dane pomiarowe

Dodano dane terminowe – wersja testowa.

Dane z okresu 1951-2019

Wersja bazy: 1.34 [2019-03-16, lista zmian], aktualizacja planowana na 2019-04-15

Dane meteo z obszaru Polski uzyskane na podstawie danych udostępnionych przez Instytut Meteorologii i Gospodarki Wodnej – Państwowy Instytut Badawczy.

 

Wybierz Datę:    

       

TemperaturaWilgotnośćWiatrCiśnienieOpadyŚniegCzas trwania zjawisk
 Stacja t tx tn tng RH VA  wxwx mslp ppp RRR   cm mm wxwxwxwxwxwxwx
1987-08-14 12.6 17.3 7.1 5.5-- 7.3 3.0---- 2.4------------
1987-08-13 13.5 18.7 4.6 2.4-- 2.7 1.7---- 0.0------------
1987-08-12 13.0 17.7 7.9 6.2-- 3.0 2.3---- 0.0------------
1987-08-11 13.1 16.4 11.0 10.0-- 5.7 3.7---- 5.0------------
1987-08-10 14.8 19.6 13.0 12.5-- 7.3 4.3---- 3.4------------
1987-08-09 17.4 24.7 11.8 8.5-- 5.3 0.7---- 7.0------------
1987-08-08 15.5 22.3 8.4 7.1-- 3.0 2.7---- 0.0------------
1987-08-07 12.7 19.1 5.8 4.2-- 3.3 3.7---- 0.0------------
1987-08-06 12.3 16.1 10.0 9.5-- 4.3 4.7---- 0.8------------
1987-08-05 13.9 18.9 6.9 5.2-- 1.7 4.0---- 0.0------------
1987-08-04 14.2 18.1 11.5 9.5-- 5.3 4.0---- 0.3------------
1987-08-03 14.5 19.3 9.1 7.0-- 3.0 3.3---- 0.1------------
1987-08-02 14.2 18.1 11.0 9.6-- 7.0 4.3---- 0.8------------
1987-08-01 15.8 19.9 12.7 11.5-- 7.3 3.7---- 2.8------------
1987-07-31 16.2 20.6 13.7 14.5-- 7.3 3.3---- 1.5------------
1987-07-30 18.0 25.2 9.2 6.5-- 2.0 1.7---- 3.2------------
1987-07-29 15.1 20.1 10.5 9.5-- 6.3 2.0---- 0.0------------
1987-07-28 14.1 17.3 12.0 11.5-- 7.7 5.3---- 0.2------------
1987-07-27 12.7 17.6 6.8 7.0-- 5.7 6.0---- 2.4------------
1987-07-26 14.1 16.7 12.5 10.0-- 5.3 3.0---- 0.0------------
1987-07-25 18.1 22.8 16.0 14.5-- 6.3 3.0---- 0.0------------
1987-07-24 20.9 25.4 15.2 13.5-- 2.3 1.7---- 0.0------------
1987-07-23 20.1 26.3 10.7 9.6-- 1.7 0.3---- 0.0------------
1987-07-22 18.7 22.3 16.3 16.0-- 5.0 0.7---- 0.0------------
1987-07-21 19.0 25.7 10.4 9.6-- 2.3 1.0---- 1.8------------
1987-07-20 18.5 21.6 15.3 14.0-- 5.7 3.3---- 0.0------------
1987-07-19 19.1 24.2 16.8 18.5-- 8.0 2.7---- 8.6------------
1987-07-18 21.3 25.8 15.0 14.0-- 5.0 3.7---- 0.0------------
1987-07-17 21.9 29.1 16.4 14.0-- 4.7 5.3---- 2.1------------
1987-07-16 20.6 26.7 10.5 8.0-- 0.7 2.7---- 0.0------------
1987-07-15 17.0 23.0 7.4 5.2-- 1.0 3.0---- 0.0------------
1987-07-14 15.7 21.4 9.5 7.0-- 1.3 2.3---- 0.0------------
1987-07-13 15.9 19.8 12.0 11.0-- 4.0 4.0---- 0.0------------
1987-07-12 20.1 27.9 14.0 12.0-- 3.0 5.0---- 12.1------------
1987-07-11 16.4 23.3 9.0 7.5-- 5.3 4.7---- 0.0------------
1987-07-10 14.5 18.3 9.8 8.2-- 3.3 5.3---- 0.0------------
1987-07-09 17.1 22.7 15.5 15.5-- 6.7 6.0---- 0.0------------
1987-07-08 21.3 28.9 13.2 11.5-- 2.0 3.0---- 10.3------------
1987-07-07 19.9 28.1 9.5 7.5-- 0.7 1.0---- 0.0------------
1987-07-06 18.3 24.6 7.9 6.2-- 0.7 0.7---- 0.0------------
1987-07-05 16.7 20.9 11.2 10.5-- 3.3 3.3---- 0.0------------
1987-07-04 17.8 22.8 12.0 10.5-- 4.0 2.3---- 0.0------------
1987-07-03 19.2 24.2 12.0 12.0-- 1.0 2.0---- 0.0------------
1987-07-02 18.7 21.5 16.5 17.0-- 5.3 0.3---- 0.0------------
1987-07-01 23.4 30.5 17.8 15.5-- 3.0 2.3---- 7.7------------
1987-06-30 24.5 29.9 16.3 15.0-- 0.0 1.3---- 0.0------------
1987-06-29 21.0 26.2 14.7 11.4-- 1.3 0.7---- 0.0------------
1987-06-28 18.6 23.2 13.5 13.0-- 4.3 2.0---- 0.0------------
1987-06-27 17.7 21.2 15.0 15.0-- 4.7 1.0---- 0.5------------
1987-06-26 17.0 23.6 9.3 8.0-- 4.0 2.0---- 7.5------------
1987-06-25 13.7 18.1 11.5 12.5-- 7.0 5.3---- 0.1------------
1987-06-24 16.2 19.5 11.0 10.0-- 6.0 1.7---- 2.2------------
1987-06-23 16.6 20.3 13.0 12.5-- 5.7 2.0---- 0.0------------
1987-06-22 16.2 21.1 11.7 10.0-- 7.0 5.0---- 0.0------------
1987-06-21 17.7 24.7 8.7 7.0-- 3.7 2.3---- 0.0------------
1987-06-20 14.2 21.4 8.1 6.5-- 6.0 2.0---- 0.0------------
1987-06-19 12.9 17.3 6.9 6.0-- 4.0 4.0---- 0.0------------
1987-06-18 10.7 14.7 6.1 5.0-- 4.0 5.3---- 0.5------------
1987-06-17 12.2 14.9 9.5 8.3-- 5.0 3.7---- 0.0------------
1987-06-16 11.8 22.7 9.0 10.0-- 8.0 6.3---- 4.5------------
393.7 ms

 

Źródłem pochodzenia danych jest Instytut Meteorologii i Gospodarki Wodnej – Państwowy Instytut Badawczy. Dane Instytutu Meteorologii i Gospodarki Wodnej – Państwowego Instytutu Badawczego zostały przetworzone.

Dane źródłowe można odnaleźć na stronie https://dane.imgw.pl